Pagrindinis puslapis
METAR-TAF:

METAR-TAF

Oro uostai :

Napakiak, Aliaska, Jungtinės Amerikos Valstijos

platuma: 60-41-25N, ilguma: 161-58-43W, Aukštis: 5 m

Dabartinis oras

Ataskaita buvo paskelbta 42 minutes, ne 20:56 UTC
Vėjas 14 kt iš Rytų/Šiaurės Rytų su gūsio iki 20 kt
Temperatūra 0°C
Drėgmė 64%
Slėgis 1019 hPa
Matomumas: 16.1 km
Giedras dangus

METAR: PANA 222056Z AUTO 06014G20KT 10SM CLR 00/M06 A3010 RMK AO2 PK WND 05026/2020 SLP193 T00001056 58010 PWINO FZRANO $

Laikas: 13:38 (21:38 UTC)


TAF: trūkstamas

Orai ataskaitas ir orų prognozės (METAR, TAF).

turimą stotys yra geltonos ir raudonos taškus žemėlapyje.

Perkelti pele per norėdami pamatyti stoties vardą.

Tada spustelėkite, norėdami matyti oro stebėjimo ir prognozės.

Norėdami pakeisti žemėlapį: spustelėkite ant žalios mygtukų su juodo kryžiaus žemyn,; žalią mygtuką su brūkšneliu, jei norite nutolinti; arba žalių rodyklių gretimoms žemėlapius.


METAR-TAF: